sensor_id;sensor_type;location;lat;lon;timestamp;temperature;humidity
56044;DHT22;41912;51.022;3.664;2023-08-31T00:01:49;15.30;99.90
56044;DHT22;41912;51.022;3.664;2023-08-31T00:04:14;15.30;99.90
56044;DHT22;41912;51.022;3.664;2023-08-31T00:06:44;15.30;99.90
56044;DHT22;41912;51.022;3.664;2023-08-31T00:09:12;15.30;99.90
56044;DHT22;41912;51.022;3.664;2023-08-31T00:11:38;15.30;99.90
56044;DHT22;41912;51.022;3.664;2023-08-31T00:14:03;15.30;99.90
56044;DHT22;41912;51.022;3.664;2023-08-31T00:16:30;15.30;99.90
56044;DHT22;41912;51.022;3.664;2023-08-31T00:18:56;15.30;99.90
56044;DHT22;41912;51.022;3.664;2023-08-31T00:21:22;15.30;99.90
56044;DHT22;41912;51.022;3.664;2023-08-31T00:23:49;15.30;99.90
56044;DHT22;41912;51.022;3.664;2023-08-31T00:26:14;15.30;99.90
56044;DHT22;41912;51.022;3.664;2023-08-31T00:28:40;15.30;99.90
56044;DHT22;41912;51.022;3.664;2023-08-31T00:31:08;15.20;99.90
56044;DHT22;41912;51.022;3.664;2023-08-31T00:33:34;15.20;99.90
56044;DHT22;41912;51.022;3.664;2023-08-31T00:36:03;15.30;99.90
56044;DHT22;41912;51.022;3.664;2023-08-31T00:38:29;15.20;99.90
56044;DHT22;41912;51.022;3.664;2023-08-31T00:40:55;15.20;99.90
56044;DHT22;41912;51.022;3.664;2023-08-31T00:43:20;15.20;99.90
56044;DHT22;41912;51.022;3.664;2023-08-31T00:45:48;15.20;99.90
56044;DHT22;41912;51.022;3.664;2023-08-31T00:48:15;15.20;99.90
56044;DHT22;41912;51.022;3.664;2023-08-31T00:50:48;15.20;99.90
56044;DHT22;41912;51.022;3.664;2023-08-31T00:53:15;15.20;99.90
56044;DHT22;41912;51.022;3.664;2023-08-31T00:55:41;15.10;99.90
56044;DHT22;41912;51.022;3.664;2023-08-31T00:58:07;15.10;99.90
56044;DHT22;41912;51.022;3.664;2023-08-31T01:03:50;15.10;99.90
56044;DHT22;41912;51.022;3.664;2023-08-31T01:06:38;15.10;99.90
56044;DHT22;41912;51.022;3.664;2023-08-31T01:09:24;15.10;99.90
56044;DHT22;41912;51.022;3.664;2023-08-31T01:14:24;15.10;99.90
56044;DHT22;41912;51.022;3.664;2023-08-31T01:16:51;15.00;99.90
56044;DHT22;41912;51.022;3.664;2023-08-31T01:22:13;15.10;99.90
56044;DHT22;41912;51.022;3.664;2023-08-31T01:24:41;15.10;99.90
56044;DHT22;41912;51.022;3.664;2023-08-31T01:27:06;15.00;99.90
56044;DHT22;41912;51.022;3.664;2023-08-31T01:29:33;15.00;99.90
56044;DHT22;41912;51.022;3.664;2023-08-31T01:31:58;15.00;99.90
56044;DHT22;41912;51.022;3.664;2023-08-31T01:34:24;15.00;99.90
56044;DHT22;41912;51.022;3.664;2023-08-31T01:36:56;15.00;99.90
56044;DHT22;41912;51.022;3.664;2023-08-31T01:39:35;15.00;99.90
56044;DHT22;41912;51.022;3.664;2023-08-31T01:42:05;15.00;99.90
56044;DHT22;41912;51.022;3.664;2023-08-31T01:44:33;15.00;99.90
56044;DHT22;41912;51.022;3.664;2023-08-31T01:47:04;15.00;99.90
56044;DHT22;41912;51.022;3.664;2023-08-31T01:49:36;15.00;99.90
56044;DHT22;41912;51.022;3.664;2023-08-31T01:52:02;15.00;99.90
56044;DHT22;41912;51.022;3.664;2023-08-31T01:54:28;15.00;99.90
56044;DHT22;41912;51.022;3.664;2023-08-31T01:56:54;15.00;99.90
56044;DHT22;41912;51.022;3.664;2023-08-31T01:59:19;15.00;99.90
56044;DHT22;41912;51.022;3.664;2023-08-31T02:01:45;15.00;99.90
56044;DHT22;41912;51.022;3.664;2023-08-31T02:04:11;15.00;99.90
56044;DHT22;41912;51.022;3.664;2023-08-31T02:06:36;15.00;99.90
56044;DHT22;41912;51.022;3.664;2023-08-31T02:09:02;15.00;99.90
56044;DHT22;41912;51.022;3.664;2023-08-31T02:11:28;15.00;99.90
56044;DHT22;41912;51.022;3.664;2023-08-31T02:13:53;15.00;99.90
56044;DHT22;41912;51.022;3.664;2023-08-31T02:16:19;15.00;99.90
56044;DHT22;41912;51.022;3.664;2023-08-31T02:18:44;14.90;99.90
56044;DHT22;41912;51.022;3.664;2023-08-31T02:21:10;15.00;99.90
56044;DHT22;41912;51.022;3.664;2023-08-31T02:23:36;15.00;99.90
56044;DHT22;41912;51.022;3.664;2023-08-31T02:26:01;15.00;99.90
56044;DHT22;41912;51.022;3.664;2023-08-31T02:28:27;15.00;99.90
56044;DHT22;41912;51.022;3.664;2023-08-31T02:31:00;14.90;99.90
56044;DHT22;41912;51.022;3.664;2023-08-31T02:33:26;15.00;99.90
56044;DHT22;41912;51.022;3.664;2023-08-31T02:35:53;14.90;99.90
56044;DHT22;41912;51.022;3.664;2023-08-31T02:38:19;14.90;99.90
56044;DHT22;41912;51.022;3.664;2023-08-31T02:40:48;15.10;99.90
56044;DHT22;41912;51.022;3.664;2023-08-31T02:43:14;14.90;99.90
56044;DHT22;41912;51.022;3.664;2023-08-31T02:45:40;14.80;99.90
56044;DHT22;41912;51.022;3.664;2023-08-31T02:48:09;14.90;99.90
56044;DHT22;41912;51.022;3.664;2023-08-31T02:50:41;14.80;99.90
56044;DHT22;41912;51.022;3.664;2023-08-31T02:53:20;14.80;99.90
56044;DHT22;41912;51.022;3.664;2023-08-31T02:55:46;14.80;99.90
56044;DHT22;41912;51.022;3.664;2023-08-31T02:58:12;14.80;99.90
56044;DHT22;41912;51.022;3.664;2023-08-31T03:00:37;14.80;99.90
56044;DHT22;41912;51.022;3.664;2023-08-31T03:03:08;14.80;99.90
56044;DHT22;41912;51.022;3.664;2023-08-31T03:05:34;14.80;99.90
56044;DHT22;41912;51.022;3.664;2023-08-31T03:08:00;14.80;99.90
56044;DHT22;41912;51.022;3.664;2023-08-31T03:10:25;14.70;99.90
56044;DHT22;41912;51.022;3.664;2023-08-31T03:12:51;14.80;99.90
56044;DHT22;41912;51.022;3.664;2023-08-31T03:15:16;14.70;99.90
56044;DHT22;41912;51.022;3.664;2023-08-31T03:17:42;14.70;99.90
56044;DHT22;41912;51.022;3.664;2023-08-31T03:20:08;14.70;99.90
56044;DHT22;41912;51.022;3.664;2023-08-31T03:22:35;14.80;99.90
56044;DHT22;41912;51.022;3.664;2023-08-31T03:25:01;14.70;99.90
56044;DHT22;41912;51.022;3.664;2023-08-31T03:27:26;14.70;99.90
56044;DHT22;41912;51.022;3.664;2023-08-31T03:29:52;14.70;99.90
56044;DHT22;41912;51.022;3.664;2023-08-31T03:32:18;14.70;99.90
56044;DHT22;41912;51.022;3.664;2023-08-31T03:34:44;14.70;99.90
56044;DHT22;41912;51.022;3.664;2023-08-31T03:37:10;14.70;99.90
56044;DHT22;41912;51.022;3.664;2023-08-31T03:39:36;14.70;99.90
56044;DHT22;41912;51.022;3.664;2023-08-31T03:42:02;14.70;99.90
56044;DHT22;41912;51.022;3.664;2023-08-31T03:44:28;14.70;99.90
56044;DHT22;41912;51.022;3.664;2023-08-31T03:46:54;14.70;99.90
56044;DHT22;41912;51.022;3.664;2023-08-31T03:49:19;14.70;99.90
56044;DHT22;41912;51.022;3.664;2023-08-31T03:51:45;14.70;99.90
56044;DHT22;41912;51.022;3.664;2023-08-31T03:54:11;14.70;99.90
56044;DHT22;41912;51.022;3.664;2023-08-31T03:56:38;14.70;99.90
56044;DHT22;41912;51.022;3.664;2023-08-31T03:59:05;14.70;99.90
56044;DHT22;41912;51.022;3.664;2023-08-31T04:01:30;14.70;99.90
56044;DHT22;41912;51.022;3.664;2023-08-31T04:03:56;14.70;99.90
56044;DHT22;41912;51.022;3.664;2023-08-31T04:06:22;14.70;99.90
56044;DHT22;41912;51.022;3.664;2023-08-31T04:08:47;14.70;99.90
56044;DHT22;41912;51.022;3.664;2023-08-31T04:11:13;14.70;99.90
56044;DHT22;41912;51.022;3.664;2023-08-31T04:13:39;14.70;99.90
56044;DHT22;41912;51.022;3.664;2023-08-31T04:16:05;14.70;99.90
56044;DHT22;41912;51.022;3.664;2023-08-31T04:18:30;14.70;99.90
56044;DHT22;41912;51.022;3.664;2023-08-31T04:20:56;14.70;99.90
56044;DHT22;41912;51.022;3.664;2023-08-31T04:23:24;14.70;99.90
56044;DHT22;41912;51.022;3.664;2023-08-31T04:25:50;14.70;99.90
56044;DHT22;41912;51.022;3.664;2023-08-31T04:28:19;14.70;99.90
56044;DHT22;41912;51.022;3.664;2023-08-31T04:30:44;14.70;99.90
56044;DHT22;41912;51.022;3.664;2023-08-31T04:33:10;14.70;99.90
56044;DHT22;41912;51.022;3.664;2023-08-31T04:35:36;14.70;99.90
56044;DHT22;41912;51.022;3.664;2023-08-31T04:38:01;14.70;99.90
56044;DHT22;41912;51.022;3.664;2023-08-31T04:40:27;14.70;99.90
56044;DHT22;41912;51.022;3.664;2023-08-31T04:42:54;14.70;99.90
56044;DHT22;41912;51.022;3.664;2023-08-31T04:45:20;14.70;99.90
56044;DHT22;41912;51.022;3.664;2023-08-31T04:47:45;14.70;99.90
56044;DHT22;41912;51.022;3.664;2023-08-31T04:50:11;14.60;99.90
56044;DHT22;41912;51.022;3.664;2023-08-31T04:52:36;14.60;99.90
56044;DHT22;41912;51.022;3.664;2023-08-31T04:55:03;14.60;99.90
56044;DHT22;41912;51.022;3.664;2023-08-31T04:57:29;14.60;99.90
56044;DHT22;41912;51.022;3.664;2023-08-31T04:59:55;14.60;99.90
56044;DHT22;41912;51.022;3.664;2023-08-31T05:02:20;14.60;99.90
56044;DHT22;41912;51.022;3.664;2023-08-31T05:04:46;14.60;99.90
56044;DHT22;41912;51.022;3.664;2023-08-31T05:07:12;14.60;99.90
56044;DHT22;41912;51.022;3.664;2023-08-31T05:09:37;14.60;99.90
56044;DHT22;41912;51.022;3.664;2023-08-31T05:12:03;14.60;99.90
56044;DHT22;41912;51.022;3.664;2023-08-31T05:14:29;14.60;99.90
56044;DHT22;41912;51.022;3.664;2023-08-31T05:16:55;14.60;99.90
56044;DHT22;41912;51.022;3.664;2023-08-31T05:19:21;14.60;99.90
56044;DHT22;41912;51.022;3.664;2023-08-31T05:21:47;14.60;99.90
56044;DHT22;41912;51.022;3.664;2023-08-31T05:24:12;14.60;99.90
56044;DHT22;41912;51.022;3.664;2023-08-31T05:26:39;14.60;99.90
56044;DHT22;41912;51.022;3.664;2023-08-31T05:29:05;14.60;99.90
56044;DHT22;41912;51.022;3.664;2023-08-31T05:31:31;14.60;99.90
56044;DHT22;41912;51.022;3.664;2023-08-31T05:33:56;14.60;99.90
56044;DHT22;41912;51.022;3.664;2023-08-31T05:36:22;14.60;99.90
56044;DHT22;41912;51.022;3.664;2023-08-31T05:38:48;14.60;99.90
56044;DHT22;41912;51.022;3.664;2023-08-31T05:41:13;14.60;99.90
56044;DHT22;41912;51.022;3.664;2023-08-31T05:43:39;14.60;99.90
56044;DHT22;41912;51.022;3.664;2023-08-31T05:46:08;14.60;99.90
56044;DHT22;41912;51.022;3.664;2023-08-31T05:48:35;14.70;99.90
56044;DHT22;41912;51.022;3.664;2023-08-31T05:51:01;14.70;99.90
56044;DHT22;41912;51.022;3.664;2023-08-31T05:53:29;14.70;99.90
56044;DHT22;41912;51.022;3.664;2023-08-31T05:55:55;14.70;99.90
56044;DHT22;41912;51.022;3.664;2023-08-31T05:58:31;14.70;99.90
56044;DHT22;41912;51.022;3.664;2023-08-31T06:00:58;14.80;99.90
56044;DHT22;41912;51.022;3.664;2023-08-31T06:03:24;14.80;99.90
56044;DHT22;41912;51.022;3.664;2023-08-31T06:05:49;14.80;99.90
56044;DHT22;41912;51.022;3.664;2023-08-31T06:08:15;14.80;99.90
56044;DHT22;41912;51.022;3.664;2023-08-31T06:10:41;14.80;99.90
56044;DHT22;41912;51.022;3.664;2023-08-31T06:13:07;14.90;99.90
56044;DHT22;41912;51.022;3.664;2023-08-31T06:15:32;14.90;99.90
56044;DHT22;41912;51.022;3.664;2023-08-31T06:17:58;14.90;99.90
56044;DHT22;41912;51.022;3.664;2023-08-31T06:20:24;15.00;99.90
56044;DHT22;41912;51.022;3.664;2023-08-31T06:22:49;15.00;99.90
56044;DHT22;41912;51.022;3.664;2023-08-31T06:25:15;15.00;99.90
56044;DHT22;41912;51.022;3.664;2023-08-31T06:27:43;15.00;99.90
56044;DHT22;41912;51.022;3.664;2023-08-31T06:30:10;15.10;99.90
56044;DHT22;41912;51.022;3.664;2023-08-31T06:32:42;15.10;99.90
56044;DHT22;41912;51.022;3.664;2023-08-31T06:35:08;15.10;99.90
56044;DHT22;41912;51.022;3.664;2023-08-31T06:37:34;15.20;99.90
56044;DHT22;41912;51.022;3.664;2023-08-31T06:39:59;15.20;99.90
56044;DHT22;41912;51.022;3.664;2023-08-31T06:42:25;15.30;99.90
56044;DHT22;41912;51.022;3.664;2023-08-31T06:44:50;15.30;99.90
56044;DHT22;41912;51.022;3.664;2023-08-31T06:47:16;15.30;99.90
56044;DHT22;41912;51.022;3.664;2023-08-31T06:49:43;15.40;99.90
56044;DHT22;41912;51.022;3.664;2023-08-31T06:52:08;15.50;99.90
56044;DHT22;41912;51.022;3.664;2023-08-31T06:54:34;15.50;99.90
56044;DHT22;41912;51.022;3.664;2023-08-31T06:57:00;15.50;99.90
56044;DHT22;41912;51.022;3.664;2023-08-31T06:59:25;15.50;99.90
56044;DHT22;41912;51.022;3.664;2023-08-31T07:01:51;15.60;99.90
56044;DHT22;41912;51.022;3.664;2023-08-31T07:04:17;15.60;99.90
56044;DHT22;41912;51.022;3.664;2023-08-31T07:06:42;15.60;99.90
56044;DHT22;41912;51.022;3.664;2023-08-31T07:09:08;15.70;99.90
56044;DHT22;41912;51.022;3.664;2023-08-31T07:11:34;15.70;99.90
56044;DHT22;41912;51.022;3.664;2023-08-31T07:14:00;15.70;99.90
56044;DHT22;41912;51.022;3.664;2023-08-31T07:16:26;15.80;99.90
56044;DHT22;41912;51.022;3.664;2023-08-31T07:18:51;15.80;99.90
56044;DHT22;41912;51.022;3.664;2023-08-31T07:21:17;15.80;99.90
56044;DHT22;41912;51.022;3.664;2023-08-31T07:23:43;15.90;99.90
56044;DHT22;41912;51.022;3.664;2023-08-31T07:26:09;15.90;99.90
56044;DHT22;41912;51.022;3.664;2023-08-31T07:28:35;16.00;99.90
56044;DHT22;41912;51.022;3.664;2023-08-31T07:31:02;16.00;99.90
56044;DHT22;41912;51.022;3.664;2023-08-31T07:33:29;16.10;99.90
56044;DHT22;41912;51.022;3.664;2023-08-31T07:35:56;16.10;99.90
56044;DHT22;41912;51.022;3.664;2023-08-31T07:38:22;16.20;99.90
56044;DHT22;41912;51.022;3.664;2023-08-31T07:40:48;16.20;99.90
56044;DHT22;41912;51.022;3.664;2023-08-31T07:43:14;16.30;99.90
56044;DHT22;41912;51.022;3.664;2023-08-31T07:45:39;16.30;99.90
56044;DHT22;41912;51.022;3.664;2023-08-31T07:48:05;16.40;99.90
56044;DHT22;41912;51.022;3.664;2023-08-31T07:50:32;16.40;99.90
56044;DHT22;41912;51.022;3.664;2023-08-31T07:52:58;16.50;99.90
56044;DHT22;41912;51.022;3.664;2023-08-31T07:55:23;16.60;99.90
56044;DHT22;41912;51.022;3.664;2023-08-31T07:57:49;16.60;99.90
56044;DHT22;41912;51.022;3.664;2023-08-31T08:00:15;16.60;99.90
56044;DHT22;41912;51.022;3.664;2023-08-31T08:02:41;16.70;99.90
56044;DHT22;41912;51.022;3.664;2023-08-31T08:05:07;16.70;99.90
56044;DHT22;41912;51.022;3.664;2023-08-31T08:07:32;16.80;99.90
56044;DHT22;41912;51.022;3.664;2023-08-31T08:09:58;16.90;99.90
56044;DHT22;41912;51.022;3.664;2023-08-31T08:12:25;16.90;99.90
56044;DHT22;41912;51.022;3.664;2023-08-31T08:14:51;16.90;99.90
56044;DHT22;41912;51.022;3.664;2023-08-31T08:17:16;17.00;99.90
56044;DHT22;41912;51.022;3.664;2023-08-31T08:19:42;17.00;99.90
56044;DHT22;41912;51.022;3.664;2023-08-31T08:22:08;17.10;99.90
56044;DHT22;41912;51.022;3.664;2023-08-31T08:24:33;17.20;99.90
56044;DHT22;41912;51.022;3.664;2023-08-31T08:26:59;17.20;99.90
56044;DHT22;41912;51.022;3.664;2023-08-31T08:29:25;17.30;99.90
56044;DHT22;41912;51.022;3.664;2023-08-31T08:31:50;17.40;99.90
56044;DHT22;41912;51.022;3.664;2023-08-31T08:34:16;17.40;99.90
56044;DHT22;41912;51.022;3.664;2023-08-31T08:36:41;17.50;99.90
56044;DHT22;41912;51.022;3.664;2023-08-31T08:39:07;17.50;99.90
56044;DHT22;41912;51.022;3.664;2023-08-31T08:41:34;17.60;99.90
56044;DHT22;41912;51.022;3.664;2023-08-31T08:44:02;17.60;99.90
56044;DHT22;41912;51.022;3.664;2023-08-31T08:46:31;17.60;99.90
56044;DHT22;41912;51.022;3.664;2023-08-31T08:49:00;17.70;99.90
56044;DHT22;41912;51.022;3.664;2023-08-31T08:51:28;17.70;99.90
56044;DHT22;41912;51.022;3.664;2023-08-31T08:53:56;17.80;99.90
56044;DHT22;41912;51.022;3.664;2023-08-31T08:56:24;17.90;99.90
56044;DHT22;41912;51.022;3.664;2023-08-31T08:58:49;18.00;99.90
56044;DHT22;41912;51.022;3.664;2023-08-31T09:01:15;18.00;99.90
56044;DHT22;41912;51.022;3.664;2023-08-31T09:03:43;18.10;99.90
56044;DHT22;41912;51.022;3.664;2023-08-31T09:06:09;18.20;99.90
56044;DHT22;41912;51.022;3.664;2023-08-31T09:08:36;18.20;99.90
56044;DHT22;41912;51.022;3.664;2023-08-31T09:11:02;18.30;99.90
56044;DHT22;41912;51.022;3.664;2023-08-31T09:13:29;18.30;99.90
56044;DHT22;41912;51.022;3.664;2023-08-31T09:15:55;18.40;99.90
56044;DHT22;41912;51.022;3.664;2023-08-31T09:18:30;18.40;99.90
56044;DHT22;41912;51.022;3.664;2023-08-31T09:20:57;18.50;99.90
56044;DHT22;41912;51.022;3.664;2023-08-31T09:23:23;18.60;99.90
56044;DHT22;41912;51.022;3.664;2023-08-31T09:25:53;18.70;99.90
56044;DHT22;41912;51.022;3.664;2023-08-31T09:28:21;18.70;99.90
56044;DHT22;41912;51.022;3.664;2023-08-31T09:30:49;18.80;99.90
56044;DHT22;41912;51.022;3.664;2023-08-31T09:33:17;18.80;99.90
56044;DHT22;41912;51.022;3.664;2023-08-31T09:35:48;18.90;99.90
56044;DHT22;41912;51.022;3.664;2023-08-31T09:38:16;18.90;99.90
56044;DHT22;41912;51.022;3.664;2023-08-31T09:40:41;19.00;99.90
56044;DHT22;41912;51.022;3.664;2023-08-31T09:43:07;19.10;99.90
56044;DHT22;41912;51.022;3.664;2023-08-31T09:45:34;19.10;99.90
56044;DHT22;41912;51.022;3.664;2023-08-31T09:48:03;19.20;99.90
56044;DHT22;41912;51.022;3.664;2023-08-31T09:50:30;19.20;99.90
56044;DHT22;41912;51.022;3.664;2023-08-31T09:53:03;19.30;99.90
56044;DHT22;41912;51.022;3.664;2023-08-31T09:55:33;19.20;99.90
56044;DHT22;41912;51.022;3.664;2023-08-31T09:58:00;19.30;99.90
56044;DHT22;41912;51.022;3.664;2023-08-31T10:00:31;19.40;99.90
56044;DHT22;41912;51.022;3.664;2023-08-31T10:03:00;19.50;99.90
56044;DHT22;41912;51.022;3.664;2023-08-31T10:05:26;19.50;99.90
56044;DHT22;41912;51.022;3.664;2023-08-31T10:07:52;19.50;99.90
56044;DHT22;41912;51.022;3.664;2023-08-31T10:10:18;19.60;99.90
56044;DHT22;41912;51.022;3.664;2023-08-31T10:12:45;19.70;99.90
56044;DHT22;41912;51.022;3.664;2023-08-31T10:15:13;19.80;99.90
56044;DHT22;41912;51.022;3.664;2023-08-31T10:17:40;19.80;99.90
56044;DHT22;41912;51.022;3.664;2023-08-31T10:20:14;19.80;99.90
56044;DHT22;41912;51.022;3.664;2023-08-31T10:22:40;19.80;99.90
56044;DHT22;41912;51.022;3.664;2023-08-31T10:25:07;19.80;99.90
56044;DHT22;41912;51.022;3.664;2023-08-31T10:27:43;19.80;99.90
56044;DHT22;41912;51.022;3.664;2023-08-31T10:33:20;19.80;99.90
56044;DHT22;41912;51.022;3.664;2023-08-31T10:35:55;19.80;99.90
56044;DHT22;41912;51.022;3.664;2023-08-31T10:38:31;19.90;99.90
56044;DHT22;41912;51.022;3.664;2023-08-31T10:43:55;20.10;99.90
56044;DHT22;41912;51.022;3.664;2023-08-31T10:46:35;20.20;99.90
56044;DHT22;41912;51.022;3.664;2023-08-31T10:49:17;20.30;99.90
56044;DHT22;41912;51.022;3.664;2023-08-31T10:51:57;20.40;99.90
56044;DHT22;41912;51.022;3.664;2023-08-31T10:54:31;20.40;99.90
56044;DHT22;41912;51.022;3.664;2023-08-31T10:59:27;20.40;99.90
56044;DHT22;41912;51.022;3.664;2023-08-31T11:02:06;20.40;99.90
56044;DHT22;41912;51.022;3.664;2023-08-31T11:04:55;20.50;99.90
56044;DHT22;41912;51.022;3.664;2023-08-31T11:07:27;20.60;99.90
56044;DHT22;41912;51.022;3.664;2023-08-31T11:10:27;20.60;99.90
56044;DHT22;41912;51.022;3.664;2023-08-31T11:12:56;20.50;99.90
56044;DHT22;41912;51.022;3.664;2023-08-31T11:15:26;20.50;99.70
56044;DHT22;41912;51.022;3.664;2023-08-31T11:17:54;20.50;98.50
56044;DHT22;41912;51.022;3.664;2023-08-31T11:20:21;20.60;99.00
56044;DHT22;41912;51.022;3.664;2023-08-31T11:22:50;20.70;99.60
56044;DHT22;41912;51.022;3.664;2023-08-31T11:25:17;20.80;99.50
56044;DHT22;41912;51.022;3.664;2023-08-31T11:27:56;20.80;98.10
56044;DHT22;41912;51.022;3.664;2023-08-31T11:30:22;20.90;98.70
56044;DHT22;41912;51.022;3.664;2023-08-31T11:32:50;21.00;98.70
56044;DHT22;41912;51.022;3.664;2023-08-31T11:35:17;21.10;98.00
56044;DHT22;41912;51.022;3.664;2023-08-31T11:37:43;21.10;97.50
56044;DHT22;41912;51.022;3.664;2023-08-31T11:40:10;21.20;98.00
56044;DHT22;41912;51.022;3.664;2023-08-31T11:42:36;21.20;97.50
56044;DHT22;41912;51.022;3.664;2023-08-31T11:45:03;21.20;98.20
56044;DHT22;41912;51.022;3.664;2023-08-31T11:47:31;21.20;98.30
56044;DHT22;41912;51.022;3.664;2023-08-31T11:49:58;21.30;98.10
56044;DHT22;41912;51.022;3.664;2023-08-31T11:52:24;21.30;98.20
56044;DHT22;41912;51.022;3.664;2023-08-31T11:54:52;21.20;98.10
56044;DHT22;41912;51.022;3.664;2023-08-31T11:57:19;21.20;98.50
56044;DHT22;41912;51.022;3.664;2023-08-31T11:59:44;21.20;98.70
56044;DHT22;41912;51.022;3.664;2023-08-31T12:02:10;21.20;98.90
56044;DHT22;41912;51.022;3.664;2023-08-31T12:04:43;21.10;99.20
56044;DHT22;41912;51.022;3.664;2023-08-31T12:07:16;21.10;98.80
56044;DHT22;41912;51.022;3.664;2023-08-31T12:09:41;21.10;98.70
56044;DHT22;41912;51.022;3.664;2023-08-31T12:12:10;21.10;98.50
56044;DHT22;41912;51.022;3.664;2023-08-31T12:14:37;21.10;97.70
56044;DHT22;41912;51.022;3.664;2023-08-31T12:17:06;21.10;97.50
56044;DHT22;41912;51.022;3.664;2023-08-31T12:19:33;21.20;97.30
56044;DHT22;41912;51.022;3.664;2023-08-31T12:22:01;21.20;97.40
56044;DHT22;41912;51.022;3.664;2023-08-31T12:24:27;21.20;97.50
56044;DHT22;41912;51.022;3.664;2023-08-31T12:26:52;21.20;97.60
56044;DHT22;41912;51.022;3.664;2023-08-31T12:29:21;21.20;98.10
56044;DHT22;41912;51.022;3.664;2023-08-31T12:31:48;21.30;97.90
56044;DHT22;41912;51.022;3.664;2023-08-31T12:34:15;21.30;97.70
56044;DHT22;41912;51.022;3.664;2023-08-31T12:36:41;21.30;97.20
56044;DHT22;41912;51.022;3.664;2023-08-31T12:39:09;21.30;97.30
56044;DHT22;41912;51.022;3.664;2023-08-31T12:41:36;21.30;97.70
56044;DHT22;41912;51.022;3.664;2023-08-31T12:44:06;21.30;97.90
56044;DHT22;41912;51.022;3.664;2023-08-31T12:46:32;21.30;97.90
56044;DHT22;41912;51.022;3.664;2023-08-31T12:48:58;21.30;97.90
56044;DHT22;41912;51.022;3.664;2023-08-31T12:51:24;21.40;98.40
56044;DHT22;41912;51.022;3.664;2023-08-31T12:53:50;21.40;98.20
56044;DHT22;41912;51.022;3.664;2023-08-31T12:56:15;21.50;98.00
56044;DHT22;41912;51.022;3.664;2023-08-31T12:58:48;21.50;96.90
56044;DHT22;41912;51.022;3.664;2023-08-31T13:01:14;21.60;96.70
56044;DHT22;41912;51.022;3.664;2023-08-31T13:03:39;21.60;96.40
56044;DHT22;41912;51.022;3.664;2023-08-31T13:06:05;21.70;96.30
56044;DHT22;41912;51.022;3.664;2023-08-31T13:08:30;21.60;96.70
56044;DHT22;41912;51.022;3.664;2023-08-31T13:10:56;21.70;96.70
56044;DHT22;41912;51.022;3.664;2023-08-31T13:13:22;21.70;96.60
56044;DHT22;41912;51.022;3.664;2023-08-31T13:15:48;21.80;96.80
56044;DHT22;41912;51.022;3.664;2023-08-31T13:18:14;21.90;96.00
56044;DHT22;41912;51.022;3.664;2023-08-31T13:20:40;21.90;95.80
56044;DHT22;41912;51.022;3.664;2023-08-31T13:23:06;21.90;95.50
56044;DHT22;41912;51.022;3.664;2023-08-31T13:25:32;22.00;95.80
56044;DHT22;41912;51.022;3.664;2023-08-31T13:27:57;22.00;96.20
56044;DHT22;41912;51.022;3.664;2023-08-31T13:30:23;22.00;95.70
56044;DHT22;41912;51.022;3.664;2023-08-31T13:32:49;21.90;95.70
56044;DHT22;41912;51.022;3.664;2023-08-31T13:35:15;22.00;96.10
56044;DHT22;41912;51.022;3.664;2023-08-31T13:37:41;22.00;96.10
56044;DHT22;41912;51.022;3.664;2023-08-31T13:40:07;21.90;96.20
56044;DHT22;41912;51.022;3.664;2023-08-31T13:42:36;21.90;95.50
56044;DHT22;41912;51.022;3.664;2023-08-31T13:45:09;21.80;95.60
56044;DHT22;41912;51.022;3.664;2023-08-31T13:47:35;21.80;95.80
56044;DHT22;41912;51.022;3.664;2023-08-31T13:50:00;21.80;96.30
56044;DHT22;41912;51.022;3.664;2023-08-31T13:52:26;21.80;96.40
56044;DHT22;41912;51.022;3.664;2023-08-31T13:54:52;21.70;94.80
56044;DHT22;41912;51.022;3.664;2023-08-31T13:57:18;21.70;94.70
56044;DHT22;41912;51.022;3.664;2023-08-31T13:59:44;21.70;95.10
56044;DHT22;41912;51.022;3.664;2023-08-31T14:02:10;21.70;95.30
56044;DHT22;41912;51.022;3.664;2023-08-31T14:04:35;21.70;95.50
56044;DHT22;41912;51.022;3.664;2023-08-31T14:07:01;21.70;95.90
56044;DHT22;41912;51.022;3.664;2023-08-31T14:09:28;21.70;95.50
56044;DHT22;41912;51.022;3.664;2023-08-31T14:11:53;21.70;95.70
56044;DHT22;41912;51.022;3.664;2023-08-31T14:14:22;21.70;95.30
56044;DHT22;41912;51.022;3.664;2023-08-31T14:16:49;21.70;95.80
56044;DHT22;41912;51.022;3.664;2023-08-31T14:19:15;21.70;95.60
56044;DHT22;41912;51.022;3.664;2023-08-31T14:21:40;21.70;95.70
56044;DHT22;41912;51.022;3.664;2023-08-31T14:24:06;21.70;95.90
56044;DHT22;41912;51.022;3.664;2023-08-31T14:26:32;21.70;96.00
56044;DHT22;41912;51.022;3.664;2023-08-31T14:28:58;21.70;95.20
56044;DHT22;41912;51.022;3.664;2023-08-31T14:31:23;21.70;95.10
56044;DHT22;41912;51.022;3.664;2023-08-31T14:33:49;21.70;95.40
56044;DHT22;41912;51.022;3.664;2023-08-31T14:36:16;21.60;95.70
56044;DHT22;41912;51.022;3.664;2023-08-31T14:38:41;21.60;95.40
56044;DHT22;41912;51.022;3.664;2023-08-31T14:41:07;21.60;96.20
56044;DHT22;41912;51.022;3.664;2023-08-31T14:43:33;21.60;96.20
56044;DHT22;41912;51.022;3.664;2023-08-31T14:45:59;21.60;95.70
56044;DHT22;41912;51.022;3.664;2023-08-31T14:48:29;21.50;96.30
56044;DHT22;41912;51.022;3.664;2023-08-31T14:50:55;21.50;96.40
56044;DHT22;41912;51.022;3.664;2023-08-31T14:53:24;21.50;96.50
56044;DHT22;41912;51.022;3.664;2023-08-31T14:55:50;21.50;96.70
56044;DHT22;41912;51.022;3.664;2023-08-31T14:58:16;21.50;96.70
56044;DHT22;41912;51.022;3.664;2023-08-31T15:00:41;21.50;96.50
56044;DHT22;41912;51.022;3.664;2023-08-31T15:03:07;21.50;95.90
56044;DHT22;41912;51.022;3.664;2023-08-31T15:05:32;21.50;95.80
56044;DHT22;41912;51.022;3.664;2023-08-31T15:08:00;21.40;95.90
56044;DHT22;41912;51.022;3.664;2023-08-31T15:10:27;21.40;96.10
56044;DHT22;41912;51.022;3.664;2023-08-31T15:12:53;21.30;96.10
56044;DHT22;41912;51.022;3.664;2023-08-31T15:15:24;21.30;96.10
56044;DHT22;41912;51.022;3.664;2023-08-31T15:17:50;21.30;96.10
56044;DHT22;41912;51.022;3.664;2023-08-31T15:20:16;21.30;95.90
56044;DHT22;41912;51.022;3.664;2023-08-31T15:22:42;21.30;96.20
56044;DHT22;41912;51.022;3.664;2023-08-31T15:25:07;21.20;96.30
56044;DHT22;41912;51.022;3.664;2023-08-31T15:27:33;21.20;96.10
56044;DHT22;41912;51.022;3.664;2023-08-31T15:29:59;21.20;96.20
56044;DHT22;41912;51.022;3.664;2023-08-31T15:32:24;21.20;96.60
56044;DHT22;41912;51.022;3.664;2023-08-31T15:34:50;21.20;96.40
56044;DHT22;41912;51.022;3.664;2023-08-31T15:37:15;21.20;96.40
56044;DHT22;41912;51.022;3.664;2023-08-31T15:39:41;21.20;96.40
56044;DHT22;41912;51.022;3.664;2023-08-31T15:42:07;21.10;96.30
56044;DHT22;41912;51.022;3.664;2023-08-31T15:44:39;21.10;96.30
56044;DHT22;41912;51.022;3.664;2023-08-31T15:47:05;21.10;96.30